Overview Statistics Trail Chart Weather Telemetry Raw packets
 

This is the latest recevied weather packets stored in our database for station/object F5IOR. If no packets are shown the sender has not sent any weather packets the latest 10 day(s).

<< 9 10 11 12 13 14 15 >>
Time Temp. Humidity Pressure Rain* Wind** Luminosity Snow
1788001581 23.33° C 48% 989.5 hPa 0 mm - - -
1787999781 23.33° C 49% 989.8 hPa 0 mm - - -
1787997981 21.67° C 57% 990 hPa 0 mm - - -
1787996182 21.11° C 58% 990 hPa 0 mm - - -
1787996181 21.11° C 58% 990 hPa 0 mm - - -
1787995221 20° C 60% 990 hPa 0 mm - - -
1787994261 20° C 61% 990 hPa 0 mm - - -
1787993301 19.44° C 62% 990.1 hPa 0 mm - - -
1787992341 18.89° C 64% 990 hPa 0 mm - - -
1787991861 18.89° C 64% 990 hPa 0 mm - - -
1787991381 18.89° C 64% 990 hPa 0 mm - - -
1787990901 18.33° C 65% 990 hPa 0 mm - - -
1787990428 18.33° C 65% 990 hPa 0 mm - - -
1787990181 17.78° C 67% 989.8 hPa 0 mm - - -
1787989941 17.78° C 67% 989.8 hPa 0 mm - - -
1787989701 17.78° C 67% 989.8 hPa 0 mm - - -
1787989461 17.78° C 67% 989.7 hPa 0 mm - - -
1787989341 17.78° C 67% 989.7 hPa 0 mm - - -
1787989221 17.78° C 67% 989.7 hPa 0 mm - - -
1787989101 17.78° C 67% 989.7 hPa 0 mm - - -
1787988981 17.78° C 67% 989.7 hPa 0 mm - - -
1787988921 17.78° C 67% 989.7 hPa 0 mm - - -
1787988861 17.78° C 67% 989.7 hPa 0 mm - - -
1787988801 17.78° C 67% 989.7 hPa 0 mm - - -
1787943975 20° C 60% 989 hPa 17.78 mm - - -

* Rain latest hour (hover to see other rain measurements)
** Current wind speed in m/s (hover to see current wind gust speed)